createdAt,value
2019-01-10T00:00:36.603Z,995.29
2019-01-10T00:01:36.479Z,995.35
2019-01-10T00:02:36.487Z,995.29
2019-01-10T00:03:36.473Z,995.29
2019-01-10T00:04:36.569Z,995.30
2019-01-10T00:05:36.485Z,995.33
2019-01-10T00:06:36.514Z,995.31
2019-01-10T00:07:36.434Z,995.34
2019-01-10T00:08:36.412Z,995.38
2019-01-10T00:09:36.453Z,995.37
2019-01-10T00:10:36.390Z,995.36
2019-01-10T00:11:36.391Z,995.35
2019-01-10T00:12:39.633Z,995.32
2019-01-10T00:13:36.370Z,995.32
2019-01-10T00:14:36.373Z,995.37
2019-01-10T00:15:36.342Z,995.41
2019-01-10T00:16:36.338Z,995.43
2019-01-10T00:17:36.348Z,995.42
2019-01-10T00:18:36.298Z,995.47
2019-01-10T00:19:36.290Z,995.50
2019-01-10T00:20:36.422Z,995.45
2019-01-10T00:21:36.276Z,995.47
2019-01-10T00:22:36.279Z,995.42
2019-01-10T00:23:36.248Z,995.46
2019-01-10T00:24:36.246Z,995.47
2019-01-10T00:25:36.245Z,995.48
2019-01-10T00:26:36.226Z,995.46
2019-01-10T00:27:36.218Z,995.46
2019-01-10T00:28:36.213Z,995.51
2019-01-10T00:29:36.181Z,995.43
2019-01-10T00:30:36.185Z,995.45
2019-01-10T00:31:36.270Z,995.53
2019-01-10T00:32:36.195Z,995.51
2019-01-10T00:33:36.151Z,995.48
2019-01-10T00:34:36.148Z,995.54
2019-01-10T00:35:36.133Z,995.53
2019-01-10T00:36:36.152Z,995.58
2019-01-10T00:37:36.116Z,995.59
2019-01-10T00:38:36.097Z,995.61
2019-01-10T00:39:36.085Z,995.57
2019-01-10T00:40:36.067Z,995.61
2019-01-10T00:41:36.081Z,995.63
2019-01-10T00:42:36.126Z,995.64
2019-01-10T00:43:36.043Z,995.66
2019-01-10T00:44:36.027Z,995.62
2019-01-10T00:45:36.161Z,995.60
2019-01-10T00:46:36.015Z,995.67
2019-01-10T00:47:36.030Z,995.61
2019-01-10T00:48:36.184Z,995.64
2019-01-10T00:49:35.977Z,995.61
2019-01-10T00:50:35.957Z,995.62
2019-01-10T00:51:35.946Z,995.61
2019-01-10T00:52:35.959Z,995.61
2019-01-10T00:53:35.965Z,995.57
2019-01-10T00:54:35.952Z,995.55
2019-01-10T00:55:35.901Z,995.56
2019-01-10T00:56:35.913Z,995.61
2019-01-10T00:57:35.907Z,995.58
2019-01-10T00:58:35.938Z,995.58
2019-01-10T00:59:35.882Z,995.59
2019-01-10T01:00:35.855Z,995.56
2019-01-10T01:01:35.850Z,995.58
2019-01-10T01:02:35.986Z,995.60
2019-01-10T01:03:35.834Z,995.59
2019-01-10T01:04:35.842Z,995.65
2019-01-10T01:05:35.799Z,995.68
2019-01-10T01:06:35.880Z,995.68
2019-01-10T01:07:35.789Z,995.67
2019-01-10T01:08:35.768Z,995.69
2019-01-10T01:09:35.759Z,995.70
2019-01-10T01:10:35.746Z,995.69
2019-01-10T01:11:35.731Z,995.70
2019-01-10T01:12:35.848Z,995.73
2019-01-10T01:13:35.715Z,995.72
2019-01-10T01:14:35.726Z,995.76
2019-01-10T01:15:35.691Z,995.78
2019-01-10T01:16:35.810Z,995.75
2019-01-10T01:17:35.695Z,995.73
2019-01-10T01:18:35.760Z,995.76
2019-01-10T01:19:35.660Z,995.71
2019-01-10T01:20:35.676Z,995.71
2019-01-10T01:21:35.661Z,995.70
2019-01-10T01:22:35.615Z,995.67
2019-01-10T01:23:35.630Z,995.68
2019-01-10T01:24:35.607Z,995.74
2019-01-10T01:25:35.659Z,995.78
2019-01-10T01:26:35.581Z,995.80
2019-01-10T01:27:35.594Z,995.76
2019-01-10T01:28:35.567Z,995.78
2019-01-10T01:29:35.554Z,995.86
2019-01-10T01:30:35.624Z,995.82
2019-01-10T01:31:35.745Z,995.86
2019-01-10T01:32:35.541Z,995.91
2019-01-10T01:33:35.513Z,995.92
2019-01-10T01:34:35.496Z,995.91
2019-01-10T01:35:35.492Z,995.95
2019-01-10T01:36:35.542Z,995.97
2019-01-10T01:37:35.479Z,995.98
2019-01-10T01:38:35.465Z,996.01
2019-01-10T01:39:35.444Z,996.09
2019-01-10T01:40:35.545Z,996.10
2019-01-10T01:41:35.428Z,996.10
2019-01-10T01:42:35.423Z,996.11
2019-01-10T01:43:35.430Z,996.13
2019-01-10T01:44:35.399Z,996.08
2019-01-10T01:45:35.383Z,996.10
2019-01-10T01:46:35.381Z,996.17
2019-01-10T01:47:35.369Z,996.15
2019-01-10T01:48:35.385Z,996.14
2019-01-10T01:49:35.347Z,996.16
2019-01-10T01:50:35.423Z,996.18
2019-01-10T01:51:35.333Z,996.18
2019-01-10T01:52:35.307Z,996.21
2019-01-10T01:53:35.318Z,996.18
2019-01-10T01:54:35.290Z,996.20
2019-01-10T01:55:35.329Z,996.23
2019-01-10T01:56:35.266Z,996.24
2019-01-10T01:57:35.248Z,996.25
2019-01-10T01:58:35.258Z,996.24
2019-01-10T01:59:35.246Z,996.23
2019-01-10T02:00:35.286Z,996.26
2019-01-10T02:01:35.249Z,996.29
2019-01-10T02:02:35.193Z,996.34
2019-01-10T02:03:35.200Z,996.32
2019-01-10T02:04:35.288Z,996.27
2019-01-10T02:05:35.197Z,996.31
2019-01-10T02:06:35.219Z,996.33
2019-01-10T02:07:35.177Z,996.33
2019-01-10T02:08:35.144Z,996.27
2019-01-10T02:09:35.129Z,996.36
2019-01-10T02:10:35.182Z,996.34
2019-01-10T02:11:35.141Z,996.30
2019-01-10T02:12:35.118Z,996.35
2019-01-10T02:13:35.187Z,996.32
2019-01-10T02:14:35.075Z,996.39
2019-01-10T02:15:35.085Z,996.38
2019-01-10T02:16:35.053Z,996.40
2019-01-10T02:17:35.059Z,996.38
2019-01-10T02:18:35.065Z,996.43
2019-01-10T02:19:35.020Z,996.42
2019-01-10T02:20:35.036Z,996.42
2019-01-10T02:21:34.994Z,996.40
2019-01-10T02:22:34.985Z,996.41
2019-01-10T02:23:35.040Z,996.40
2019-01-10T02:24:35.022Z,996.42
2019-01-10T02:25:34.952Z,996.45
2019-01-10T02:26:34.942Z,996.47
2019-01-10T02:27:34.933Z,996.47
2019-01-10T02:28:34.936Z,996.43
2019-01-10T02:29:34.921Z,996.43
2019-01-10T02:30:41.840Z,996.46
2019-01-10T02:31:35.906Z,996.47
2019-01-10T02:32:34.886Z,996.51
2019-01-10T02:33:34.991Z,996.49
2019-01-10T02:34:34.868Z,996.54
2019-01-10T02:35:34.857Z,996.46
2019-01-10T02:36:34.910Z,996.44
2019-01-10T02:37:34.830Z,996.47
2019-01-10T02:38:34.833Z,996.45
2019-01-10T02:39:34.808Z,996.51
2019-01-10T02:40:34.800Z,996.50
2019-01-10T02:41:34.800Z,996.50
2019-01-10T02:42:34.795Z,996.50
2019-01-10T02:43:34.780Z,996.54
2019-01-10T02:44:34.749Z,996.49
2019-01-10T02:45:34.740Z,996.52
2019-01-10T02:46:34.726Z,996.58
2019-01-10T02:47:34.715Z,996.60
2019-01-10T02:48:34.766Z,996.62
2019-01-10T02:49:34.712Z,996.67
2019-01-10T02:50:34.685Z,996.63
2019-01-10T02:51:34.673Z,996.67
2019-01-10T02:52:34.663Z,996.63
2019-01-10T02:53:34.653Z,996.61
2019-01-10T02:54:34.754Z,996.61
2019-01-10T02:55:34.635Z,996.58
2019-01-10T02:56:34.694Z,996.58
2019-01-10T02:57:34.612Z,996.57
2019-01-10T02:58:34.605Z,996.57
2019-01-10T02:59:34.614Z,996.54
2019-01-10T03:00:34.604Z,996.55
2019-01-10T03:01:34.567Z,996.47
2019-01-10T03:02:34.566Z,996.53
2019-01-10T03:03:34.552Z,996.57
2019-01-10T03:04:34.625Z,996.57
2019-01-10T03:05:34.544Z,996.62
2019-01-10T03:06:34.517Z,996.59
2019-01-10T03:07:34.511Z,996.64
2019-01-10T03:08:34.604Z,996.62
2019-01-10T03:09:34.509Z,996.66
2019-01-10T03:10:34.479Z,996.70
2019-01-10T03:11:34.512Z,996.64
2019-01-10T03:12:34.452Z,996.65
2019-01-10T03:13:36.846Z,996.67
2019-01-10T03:14:34.465Z,996.64
2019-01-10T03:15:34.422Z,996.65
2019-01-10T03:16:34.437Z,996.58
2019-01-10T03:17:34.408Z,996.61
2019-01-10T03:18:34.429Z,996.60
2019-01-10T03:19:34.395Z,996.64
2019-01-10T03:20:34.384Z,996.61
2019-01-10T03:21:34.384Z,996.58
2019-01-10T03:22:34.500Z,996.61
2019-01-10T03:23:34.343Z,996.60
2019-01-10T03:24:34.345Z,996.61
2019-01-10T03:25:34.343Z,996.55
2019-01-10T03:26:34.301Z,996.54
2019-01-10T03:27:34.296Z,996.56
2019-01-10T03:28:34.350Z,996.58
2019-01-10T03:29:34.315Z,996.61
2019-01-10T03:30:34.275Z,996.59
2019-01-10T03:31:34.251Z,996.61
2019-01-10T03:32:34.351Z,996.62
2019-01-10T03:33:34.327Z,996.61
2019-01-10T03:34:34.287Z,996.60
2019-01-10T03:35:34.203Z,996.61
2019-01-10T03:36:34.220Z,996.59
2019-01-10T03:37:34.183Z,996.61
2019-01-10T03:38:34.172Z,996.62
2019-01-10T03:39:34.314Z,996.62
2019-01-10T03:40:34.164Z,996.65
2019-01-10T03:41:34.140Z,996.65
2019-01-10T03:42:34.131Z,996.62
2019-01-10T03:43:34.125Z,996.63
2019-01-10T03:44:34.691Z,996.61
2019-01-10T03:45:34.127Z,996.56
2019-01-10T03:46:34.097Z,996.53
2019-01-10T03:47:34.118Z,996.52
2019-01-10T03:48:34.066Z,996.53
2019-01-10T03:49:34.070Z,996.54
2019-01-10T03:50:34.047Z,996.56
2019-01-10T03:51:34.035Z,996.48
2019-01-10T03:52:34.026Z,996.51
2019-01-10T03:53:34.013Z,996.54
2019-01-10T03:54:34.171Z,996.54
2019-01-10T03:55:33.993Z,996.55
2019-01-10T03:56:33.990Z,996.52
2019-01-10T03:57:33.999Z,996.57
2019-01-10T03:58:33.968Z,996.56
2019-01-10T03:59:33.966Z,996.63
2019-01-10T04:00:33.971Z,996.61
2019-01-10T04:01:33.929Z,996.64
2019-01-10T04:02:33.935Z,996.62
2019-01-10T04:03:33.913Z,996.62
2019-01-10T04:04:33.952Z,996.67
2019-01-10T04:05:33.911Z,996.60
2019-01-10T04:06:33.888Z,996.60
2019-01-10T04:07:33.865Z,996.56
2019-01-10T04:08:33.868Z,996.53
2019-01-10T04:09:33.850Z,996.60
2019-01-10T04:10:33.851Z,996.58
2019-01-10T04:11:33.955Z,996.61
2019-01-10T04:12:33.821Z,996.63
2019-01-10T04:13:33.807Z,996.63
2019-01-10T04:14:33.803Z,996.63
2019-01-10T04:15:33.814Z,996.68
2019-01-10T04:16:33.772Z,996.63
2019-01-10T04:17:33.760Z,996.71
2019-01-10T04:18:33.773Z,996.66
2019-01-10T04:19:33.742Z,996.72
2019-01-10T04:20:33.750Z,996.70
2019-01-10T04:21:33.731Z,996.70
2019-01-10T04:22:33.703Z,996.75
2019-01-10T04:23:33.694Z,996.71
2019-01-10T04:24:33.684Z,996.71
2019-01-10T04:25:33.691Z,996.75
2019-01-10T04:26:33.671Z,996.71
2019-01-10T04:27:33.653Z,996.71
2019-01-10T04:28:33.643Z,996.73
2019-01-10T04:29:33.634Z,996.67
2019-01-10T04:30:33.647Z,996.67
2019-01-10T04:31:33.607Z,996.69
2019-01-10T04:32:33.633Z,996.73
2019-01-10T04:33:33.590Z,996.71
2019-01-10T04:34:33.679Z,996.70
2019-01-10T04:35:33.596Z,996.72
2019-01-10T04:36:33.567Z,996.73
2019-01-10T04:37:33.556Z,996.69
2019-01-10T04:38:33.551Z,996.73
2019-01-10T04:39:33.568Z,996.78
2019-01-10T04:40:33.861Z,996.79
2019-01-10T04:41:33.527Z,996.77
2019-01-10T04:42:33.499Z,996.79
2019-01-10T04:43:33.503Z,996.81
2019-01-10T04:44:33.473Z,996.77
2019-01-10T04:45:33.479Z,996.79
2019-01-10T04:46:33.483Z,996.82
2019-01-10T04:47:33.437Z,996.80
2019-01-10T04:48:33.428Z,996.82
2019-01-10T04:49:33.417Z,996.82
2019-01-10T04:50:33.423Z,996.83
2019-01-10T04:51:33.437Z,996.85
2019-01-10T04:52:33.397Z,996.86
2019-01-10T04:53:33.382Z,996.81
2019-01-10T04:54:38.275Z,996.80
2019-01-10T04:55:34.371Z,996.78
2019-01-10T04:56:33.342Z,996.84
2019-01-10T04:57:33.334Z,996.83
2019-01-10T04:58:33.339Z,996.85
2019-01-10T04:59:33.331Z,996.87
2019-01-10T05:00:33.318Z,996.83
2019-01-10T05:01:33.345Z,996.78
2019-01-10T05:02:33.308Z,996.77
2019-01-10T05:03:33.267Z,996.80
2019-01-10T05:04:33.271Z,996.84
2019-01-10T05:05:33.266Z,996.84
2019-01-10T05:06:33.245Z,996.83
2019-01-10T05:07:33.413Z,996.87
2019-01-10T05:08:33.218Z,996.87
2019-01-10T05:09:33.217Z,996.86
2019-01-10T05:10:33.225Z,996.86
2019-01-10T05:11:33.185Z,996.85
2019-01-10T05:12:33.188Z,996.86
2019-01-10T05:13:33.334Z,996.87
2019-01-10T05:14:33.162Z,996.87
2019-01-10T05:15:33.170Z,996.86
2019-01-10T05:16:33.134Z,996.86
2019-01-10T05:17:33.165Z,996.88
2019-01-10T05:18:33.119Z,996.84
2019-01-10T05:19:33.166Z,996.87
2019-01-10T05:20:33.239Z,996.85
2019-01-10T05:21:33.084Z,996.90
2019-01-10T05:22:33.291Z,996.87
2019-01-10T05:23:33.074Z,996.83
2019-01-10T05:24:33.044Z,996.83
2019-01-10T05:25:33.138Z,996.86
2019-01-10T05:26:33.030Z,996.87
2019-01-10T05:27:33.113Z,996.90
2019-01-10T05:28:33.009Z,996.93
2019-01-10T05:29:33.010Z,996.94
2019-01-10T05:30:33.007Z,996.94
2019-01-10T05:31:32.972Z,996.92
2019-01-10T05:32:32.966Z,996.97
2019-01-10T05:33:33.032Z,996.96
2019-01-10T05:34:32.939Z,996.93
2019-01-10T05:35:32.950Z,996.92
2019-01-10T05:36:32.917Z,996.91
2019-01-10T05:37:32.955Z,996.96
2019-01-10T05:38:32.900Z,996.90
2019-01-10T05:39:32.927Z,996.95
2019-01-10T05:40:33.027Z,996.97
2019-01-10T05:41:32.865Z,997.00
2019-01-10T05:42:32.919Z,997.01
2019-01-10T05:43:32.897Z,996.94
2019-01-10T05:44:32.892Z,996.96
2019-01-10T05:45:32.921Z,996.96
2019-01-10T05:46:32.895Z,996.94
2019-01-10T05:47:32.838Z,996.94
2019-01-10T05:48:32.808Z,996.94
2019-01-10T05:49:32.791Z,996.95
2019-01-10T05:50:32.796Z,996.94
2019-01-10T05:51:32.771Z,996.91
2019-01-10T05:52:32.780Z,996.92
2019-01-10T05:53:32.748Z,996.93
2019-01-10T05:54:32.731Z,996.87
2019-01-10T05:55:32.742Z,996.90
2019-01-10T05:56:32.779Z,996.86
2019-01-10T05:57:32.694Z,996.89
2019-01-10T05:58:32.691Z,996.88
2019-01-10T05:59:32.679Z,996.93
2019-01-10T06:00:32.715Z,996.90
2019-01-10T06:01:32.653Z,996.90
2019-01-10T06:02:32.700Z,996.89
2019-01-10T06:03:32.636Z,996.93
2019-01-10T06:04:32.832Z,996.96
2019-01-10T06:05:32.617Z,996.92
2019-01-10T06:06:32.625Z,996.93
2019-01-10T06:07:32.608Z,996.93
2019-01-10T06:08:32.582Z,996.96
2019-01-10T06:09:32.661Z,996.99
2019-01-10T06:10:32.557Z,996.96
2019-01-10T06:11:32.558Z,996.95
2019-01-10T06:12:32.547Z,997.00
2019-01-10T06:13:32.596Z,997.01
2019-01-10T06:14:35.785Z,997.01
2019-01-10T06:15:32.544Z,997.02
2019-01-10T06:16:32.665Z,997.05
2019-01-10T06:17:32.533Z,997.07
2019-01-10T06:18:32.541Z,997.09
2019-01-10T06:19:32.497Z,997.04
2019-01-10T06:20:32.522Z,997.08
2019-01-10T06:21:32.459Z,997.12
2019-01-10T06:22:32.437Z,997.14
2019-01-10T06:23:32.504Z,997.14
2019-01-10T06:24:32.415Z,997.15
2019-01-10T06:25:32.395Z,997.11
2019-01-10T06:26:32.446Z,997.15
2019-01-10T06:27:32.489Z,997.15
2019-01-10T06:28:32.364Z,997.17
2019-01-10T06:29:32.419Z,997.25
2019-01-10T06:30:32.349Z,997.28
2019-01-10T06:31:32.351Z,997.28
2019-01-10T06:32:32.421Z,997.24
2019-01-10T06:33:32.313Z,997.25
2019-01-10T06:34:32.315Z,997.29
2019-01-10T06:35:32.299Z,997.27
2019-01-10T06:36:32.372Z,997.29
2019-01-10T06:37:32.278Z,997.29
2019-01-10T06:38:32.271Z,997.29
2019-01-10T06:39:32.322Z,997.33
2019-01-10T06:40:32.251Z,997.32
2019-01-10T06:41:32.243Z,997.34
2019-01-10T06:42:32.220Z,997.32
2019-01-10T06:43:32.212Z,997.39
2019-01-10T06:44:32.201Z,997.40
2019-01-10T06:45:32.220Z,997.36
2019-01-10T06:46:32.196Z,997.35
2019-01-10T06:47:32.165Z,997.41
2019-01-10T06:48:32.165Z,997.41
2019-01-10T06:49:32.152Z,997.46
2019-01-10T06:50:32.136Z,997.42
2019-01-10T06:51:32.135Z,997.46
2019-01-10T06:52:32.211Z,997.48
2019-01-10T06:53:32.119Z,997.45
2019-01-10T06:54:32.114Z,997.50
2019-01-10T06:55:32.133Z,997.50
2019-01-10T06:56:32.087Z,997.45
2019-01-10T06:57:32.061Z,997.48
2019-01-10T06:58:32.135Z,997.45
2019-01-10T06:59:32.041Z,997.46
2019-01-10T07:00:32.046Z,997.51
2019-01-10T07:01:32.039Z,997.50
2019-01-10T07:02:32.026Z,997.54
2019-01-10T07:03:32.033Z,997.53
2019-01-10T07:04:31.989Z,997.50
2019-01-10T07:05:31.984Z,997.50
2019-01-10T07:06:32.063Z,997.50
2019-01-10T07:07:31.961Z,997.50
2019-01-10T07:08:31.979Z,997.43
2019-01-10T07:09:31.941Z,997.48
2019-01-10T07:10:31.926Z,997.50
2019-01-10T07:11:31.943Z,997.52
2019-01-10T07:12:31.907Z,997.50
2019-01-10T07:13:31.936Z,997.53
2019-01-10T07:14:31.895Z,997.53
2019-01-10T07:15:31.881Z,997.61
2019-01-10T07:16:31.898Z,997.60
2019-01-10T07:17:31.866Z,997.61
2019-01-10T07:18:31.852Z,997.63
2019-01-10T07:19:31.839Z,997.61
2019-01-10T07:20:31.823Z,997.61
2019-01-10T07:21:31.917Z,997.61
2019-01-10T07:22:31.802Z,997.61
2019-01-10T07:23:31.803Z,997.63
2019-01-10T07:24:31.781Z,997.65
2019-01-10T07:25:31.773Z,997.61
2019-01-10T07:26:31.799Z,997.62
2019-01-10T07:27:31.754Z,997.62
2019-01-10T07:28:31.837Z,997.63
2019-01-10T07:29:31.726Z,997.66
2019-01-10T07:30:36.241Z,997.66
2019-01-10T07:31:31.721Z,997.70
2019-01-10T07:32:31.704Z,997.71
2019-01-10T07:33:32.243Z,997.69
2019-01-10T07:34:31.751Z,997.68
2019-01-10T07:35:31.671Z,997.67
2019-01-10T07:36:31.675Z,997.68
2019-01-10T07:37:31.649Z,997.67
2019-01-10T07:38:31.738Z,997.68
2019-01-10T07:39:31.639Z,997.63
2019-01-10T07:40:31.617Z,997.63
2019-01-10T07:41:31.625Z,997.63
2019-01-10T07:42:31.596Z,997.64
2019-01-10T07:43:31.632Z,997.68
2019-01-10T07:44:31.573Z,997.68
2019-01-10T07:45:31.564Z,997.74
2019-01-10T07:46:31.567Z,997.72
2019-01-10T07:47:31.543Z,997.71
2019-01-10T07:48:31.527Z,997.70
2019-01-10T07:49:31.519Z,997.76
2019-01-10T07:50:31.605Z,997.79
2019-01-10T07:51:31.519Z,997.81
2019-01-10T07:52:31.505Z,997.80
2019-01-10T07:53:31.482Z,997.81
2019-01-10T07:54:31.485Z,997.84
2019-01-10T07:55:31.467Z,997.85
2019-01-10T07:56:31.495Z,997.90
2019-01-10T07:57:31.440Z,997.92
2019-01-10T07:58:31.430Z,997.89
2019-01-10T07:59:31.501Z,997.86
2019-01-10T08:00:31.414Z,997.89
2019-01-10T08:01:31.392Z,997.91
2019-01-10T08:02:31.398Z,997.96
2019-01-10T08:03:31.371Z,997.95
2019-01-10T08:04:31.367Z,997.93
2019-01-10T08:05:31.412Z,997.93
2019-01-10T08:06:31.340Z,997.95
2019-01-10T08:07:31.346Z,997.97
2019-01-10T08:08:31.318Z,997.96
2019-01-10T08:09:31.335Z,997.97
2019-01-10T08:10:31.298Z,997.93
2019-01-10T08:11:31.369Z,997.94
2019-01-10T08:12:31.294Z,997.96
2019-01-10T08:13:31.354Z,998.00
2019-01-10T08:14:31.265Z,997.98
2019-01-10T08:15:31.248Z,998.01
2019-01-10T08:16:31.249Z,997.99
2019-01-10T08:17:31.245Z,997.99
2019-01-10T08:18:31.235Z,998.00
2019-01-10T08:19:31.210Z,997.98
2019-01-10T08:20:31.235Z,998.01
2019-01-10T08:21:31.182Z,997.98
2019-01-10T08:22:31.182Z,998.04
2019-01-10T08:23:31.178Z,998.10
2019-01-10T08:24:31.155Z,998.06
2019-01-10T08:25:31.139Z,998.14
2019-01-10T08:26:31.162Z,998.14
2019-01-10T08:27:31.147Z,998.11
2019-01-10T08:28:31.112Z,998.16
2019-01-10T08:29:31.131Z,998.19
2019-01-10T08:30:31.093Z,998.13
2019-01-10T08:31:31.079Z,998.20
2019-01-10T08:32:31.157Z,998.19
2019-01-10T08:33:31.056Z,998.22
2019-01-10T08:34:31.086Z,998.23
2019-01-10T08:35:31.041Z,998.25
2019-01-10T08:36:32.545Z,998.20
2019-01-10T08:37:31.112Z,998.18
2019-01-10T08:38:31.002Z,998.19
2019-01-10T08:39:30.992Z,998.18
2019-01-10T08:40:31.023Z,998.20
2019-01-10T08:41:30.970Z,998.24
2019-01-10T08:42:30.978Z,998.24
2019-01-10T08:43:30.960Z,998.25
2019-01-10T08:44:31.006Z,998.31
2019-01-10T08:45:30.927Z,998.33
2019-01-10T08:46:30.924Z,998.30
2019-01-10T08:47:30.983Z,998.32
2019-01-10T08:48:30.909Z,998.34
2019-01-10T08:49:30.900Z,998.34
2019-01-10T08:50:30.880Z,998.38
2019-01-10T08:51:30.866Z,998.37
2019-01-10T08:52:30.867Z,998.38
2019-01-10T08:53:30.898Z,998.37
2019-01-10T08:54:30.847Z,998.40
2019-01-10T08:55:30.827Z,998.40
2019-01-10T08:56:30.812Z,998.42
2019-01-10T08:57:30.818Z,998.41
2019-01-10T08:58:30.795Z,998.43
2019-01-10T08:59:30.850Z,998.41
2019-01-10T09:00:30.770Z,998.39
2019-01-10T09:01:30.762Z,998.37
2019-01-10T09:02:30.761Z,998.43
2019-01-10T09:03:30.736Z,998.41
2019-01-10T09:04:30.734Z,998.37
2019-01-10T09:05:30.718Z,998.43
2019-01-10T09:06:30.790Z,998.40
2019-01-10T09:07:30.709Z,998.42
2019-01-10T09:08:30.695Z,998.43
2019-01-10T09:09:30.687Z,998.46
2019-01-10T09:10:30.707Z,998.43
2019-01-10T09:11:30.654Z,998.43
2019-01-10T09:12:30.653Z,998.44
2019-01-10T09:13:30.844Z,998.43
2019-01-10T09:14:30.676Z,998.42
2019-01-10T09:15:34.742Z,998.39
2019-01-10T09:16:30.610Z,998.41
2019-01-10T09:17:30.652Z,998.41
2019-01-10T09:18:30.580Z,998.41
2019-01-10T09:19:30.579Z,998.43
2019-01-10T09:20:30.556Z,998.39
2019-01-10T09:21:30.589Z,998.32
2019-01-10T09:22:30.535Z,998.37
2019-01-10T09:23:30.545Z,998.31
2019-01-10T09:24:30.521Z,998.30
2019-01-10T09:25:30.517Z,998.35
2019-01-10T09:26:37.628Z,998.31
2019-01-10T09:27:31.491Z,998.36
2019-01-10T09:28:30.526Z,998.32
2019-01-10T09:29:30.467Z,998.36
2019-01-10T09:30:30.499Z,998.36
2019-01-10T09:31:30.446Z,998.35
2019-01-10T09:32:30.432Z,998.38
2019-01-10T09:33:30.446Z,998.40
2019-01-10T09:34:30.406Z,998.46
2019-01-10T09:35:30.436Z,998.48
2019-01-10T09:36:30.429Z,998.45
2019-01-10T09:37:30.393Z,998.42
2019-01-10T09:38:30.388Z,998.47
2019-01-10T09:39:30.356Z,998.46
2019-01-10T09:40:30.349Z,998.45
2019-01-10T09:41:30.407Z,998.47
2019-01-10T09:42:30.325Z,998.43
2019-01-10T09:43:30.326Z,998.42
2019-01-10T09:44:30.304Z,998.43
2019-01-10T09:45:30.292Z,998.39
2019-01-10T09:46:30.283Z,998.41
2019-01-10T09:47:30.325Z,998.39
2019-01-10T09:48:30.280Z,998.41
2019-01-10T09:49:30.251Z,998.41
2019-01-10T09:50:30.240Z,998.36
2019-01-10T09:51:30.245Z,998.38
2019-01-10T09:52:30.228Z,998.36
2019-01-10T09:53:30.233Z,998.38
2019-01-10T09:54:30.199Z,998.44
2019-01-10T09:55:30.220Z,998.45
2019-01-10T09:56:30.176Z,998.45
2019-01-10T09:57:30.171Z,998.44
2019-01-10T09:58:30.172Z,998.49
2019-01-10T09:59:30.148Z,998.52
2019-01-10T10:00:30.183Z,998.50
2019-01-10T10:01:30.182Z,998.52
2019-01-10T10:02:30.163Z,998.54
2019-01-10T10:03:30.133Z,998.54
2019-01-10T10:04:30.102Z,998.52
2019-01-10T10:05:30.090Z,998.57
2019-01-10T10:06:30.082Z,998.52
2019-01-10T10:07:30.062Z,998.55
2019-01-10T10:08:30.062Z,998.58
2019-01-10T10:09:30.061Z,998.59
2019-01-10T10:10:30.026Z,998.61
2019-01-10T10:11:34.147Z,998.60
2019-01-10T10:12:30.009Z,998.66
2019-01-10T10:13:30.026Z,998.66
2019-01-10T10:14:29.987Z,998.66
2019-01-10T10:15:29.986Z,998.70
2019-01-10T10:16:30.014Z,998.72
2019-01-10T10:17:29.962Z,998.69
2019-01-10T10:18:29.996Z,998.73
2019-01-10T10:19:29.936Z,998.73
2019-01-10T10:20:29.960Z,998.72
2019-01-10T10:21:29.916Z,998.70
2019-01-10T10:22:29.904Z,998.72
2019-01-10T10:23:29.946Z,998.71
2019-01-10T10:24:29.885Z,998.72
2019-01-10T10:25:29.872Z,998.72
2019-01-10T10:26:29.873Z,998.73
2019-01-10T10:27:29.858Z,998.70
2019-01-10T10:28:29.854Z,998.71
2019-01-10T10:29:29.878Z,998.69
2019-01-10T10:30:29.816Z,998.69
2019-01-10T10:31:29.846Z,998.70
2019-01-10T10:32:29.796Z,998.75
2019-01-10T10:33:29.799Z,998.76
2019-01-10T10:34:29.774Z,998.72
2019-01-10T10:35:29.771Z,998.73
2019-01-10T10:36:30.044Z,998.79
2019-01-10T10:37:29.820Z,998.78
2019-01-10T10:38:29.754Z,998.73
2019-01-10T10:39:29.723Z,998.78
2019-01-10T10:40:29.715Z,998.80
2019-01-10T10:41:29.714Z,998.77
2019-01-10T10:42:29.694Z,998.79
2019-01-10T10:43:29.695Z,998.79
2019-01-10T10:44:29.753Z,998.79
2019-01-10T10:45:29.678Z,998.80
2019-01-10T10:46:29.669Z,998.76
2019-01-10T10:47:29.638Z,998.76
2019-01-10T10:48:29.639Z,998.73
2019-01-10T10:49:29.621Z,998.74
2019-01-10T10:50:29.671Z,998.75
2019-01-10T10:51:29.612Z,998.73
2019-01-10T10:52:29.589Z,998.79
2019-01-10T10:53:29.602Z,998.77
2019-01-10T10:54:29.564Z,998.80
2019-01-10T10:55:29.556Z,998.80
2019-01-10T10:56:29.541Z,998.73
2019-01-10T10:57:29.590Z,998.72
2019-01-10T10:58:29.543Z,998.69
2019-01-10T10:59:29.509Z,998.72
2019-01-10T11:00:29.565Z,998.74
2019-01-10T11:01:29.492Z,998.73
2019-01-10T11:02:29.481Z,998.74
2019-01-10T11:03:29.542Z,998.72
2019-01-10T11:04:29.462Z,998.73
2019-01-10T11:05:29.445Z,998.74
2019-01-10T11:06:30.412Z,998.72
2019-01-10T11:07:29.423Z,998.74
2019-01-10T11:08:29.429Z,998.72
2019-01-10T11:09:29.422Z,998.68
2019-01-10T11:10:29.490Z,998.67
2019-01-10T11:11:29.396Z,998.67
2019-01-10T11:12:29.372Z,998.69
2019-01-10T11:13:29.513Z,998.65
2019-01-10T11:14:29.379Z,998.68
2019-01-10T11:15:29.343Z,998.64
2019-01-10T11:16:29.408Z,998.63
2019-01-10T11:17:29.326Z,998.62
2019-01-10T11:18:29.328Z,998.57
2019-01-10T11:19:29.339Z,998.55
2019-01-10T11:20:29.496Z,998.57
2019-01-10T11:21:29.312Z,998.60
2019-01-10T11:22:29.349Z,998.63
2019-01-10T11:23:29.320Z,998.65
2019-01-10T11:24:29.274Z,998.66
2019-01-10T11:25:29.280Z,998.65
2019-01-10T11:26:29.220Z,998.67
2019-01-10T11:27:29.224Z,998.63
2019-01-10T11:28:29.218Z,998.63
2019-01-10T11:29:29.342Z,998.65
2019-01-10T11:30:29.177Z,998.64
2019-01-10T11:31:29.168Z,998.61
2019-01-10T11:32:29.159Z,998.63
2019-01-10T11:33:29.150Z,998.61
2019-01-10T11:34:29.221Z,998.60
2019-01-10T11:35:29.152Z,998.61
2019-01-10T11:36:29.137Z,998.65
2019-01-10T11:37:29.145Z,998.63
2019-01-10T11:38:29.113Z,998.57
2019-01-10T11:39:29.097Z,998.60
2019-01-10T11:40:29.082Z,998.55
2019-01-10T11:41:29.215Z,998.55
2019-01-10T11:42:29.075Z,998.54
2019-01-10T11:43:29.043Z,998.52
2019-01-10T11:44:29.074Z,998.52
2019-01-10T11:45:29.022Z,998.51
2019-01-10T11:46:29.082Z,998.44
2019-01-10T11:47:28.996Z,998.44
2019-01-10T11:48:28.984Z,998.44
2019-01-10T11:49:29.005Z,998.39
2019-01-10T11:50:28.969Z,998.32
2019-01-10T11:51:28.980Z,998.33
2019-01-10T11:52:29.032Z,998.39
2019-01-10T11:53:35.369Z,998.39
2019-01-10T11:54:29.951Z,998.41
2019-01-10T11:55:28.986Z,998.41
2019-01-10T11:56:28.942Z,998.33
2019-01-10T11:57:28.899Z,998.38
2019-01-10T11:58:28.939Z,998.39
2019-01-10T11:59:28.907Z,998.31
2019-01-10T12:00:28.980Z,998.32
2019-01-10T12:01:28.856Z,998.37
2019-01-10T12:02:36.226Z,998.35
2019-01-10T12:03:29.866Z,998.35
2019-01-10T12:04:28.835Z,998.36
2019-01-10T12:05:28.828Z,998.29
2019-01-10T12:06:28.811Z,998.31
2019-01-10T12:07:28.786Z,998.29
2019-01-10T12:08:28.830Z,998.27
2019-01-10T12:09:28.784Z,998.29
2019-01-10T12:10:28.786Z,998.36
2019-01-10T12:11:28.743Z,998.35
2019-01-10T12:12:28.731Z,998.33
2019-01-10T12:13:28.790Z,998.38
2019-01-10T12:14:28.722Z,998.34
2019-01-10T12:15:28.698Z,998.33
2019-01-10T12:16:28.954Z,998.32
2019-01-10T12:17:28.678Z,998.32
2019-01-10T12:18:28.773Z,998.25
2019-01-10T12:19:28.698Z,998.30
2019-01-10T12:20:28.658Z,998.32
2019-01-10T12:21:28.849Z,998.32
2019-01-10T12:22:28.653Z,998.37
2019-01-10T12:23:28.628Z,998.38
2019-01-10T12:24:28.675Z,998.35
2019-01-10T12:25:28.595Z,998.39
2019-01-10T12:26:28.650Z,998.35
2019-01-10T12:27:28.582Z,998.37
2019-01-10T12:28:28.574Z,998.34